Allendorf, Iowa
Current Conditions -  °F | °C
As of 6:35 PM on Wednesday 17 Dec 2014 (Local Time) from KSHL Reporting Station
Clear Clear  
Wind Chill:   Ceiling: Unl
Heat Index: 16°   Visibility: 10mi
Dew Point: 16°   Wind: 5mph
Humidity: 100%   Direction: 330°NNW
Pressure: 30.27"   Gusts: NA
Location:  43.41°N, 95.64°W
Report Text: KSHL 180035Z AUTO 33004KT 10SM CLR M09/M09 A3027 RMK AO2
Loading
Personal Weather Stations






























Interactive Weather Map New forecast layout! Learn more

10-Day Weather Forecast

Advertisements
Track Severe Weather on mobile